sensor_id;sensor_type;location;lat;lon;timestamp;P1;durP1;ratioP1;P2;durP2;ratioP2
15708;SDS011;7954;51.914;8.420;2023-07-20T00:00:00;3.67;;;3.37;;
15708;SDS011;7954;51.914;8.420;2023-07-20T00:02:30;4.07;;;3.73;;
15708;SDS011;7954;51.914;8.420;2023-07-20T00:04:58;4.23;;;3.83;;
15708;SDS011;7954;51.914;8.420;2023-07-20T00:07:26;3.73;;;3.43;;
15708;SDS011;7954;51.914;8.420;2023-07-20T00:09:53;4.13;;;3.73;;
15708;SDS011;7954;51.914;8.420;2023-07-20T00:12:21;3.70;;;3.40;;
15708;SDS011;7954;51.914;8.420;2023-07-20T00:14:51;4.30;;;3.90;;
15708;SDS011;7954;51.914;8.420;2023-07-20T00:17:20;4.00;;;3.70;;
15708;SDS011;7954;51.914;8.420;2023-07-20T00:19:48;5.07;;;4.47;;
15708;SDS011;7954;51.914;8.420;2023-07-20T00:22:16;4.40;;;4.00;;
15708;SDS011;7954;51.914;8.420;2023-07-20T00:24:44;4.77;;;4.37;;
15708;SDS011;7954;51.914;8.420;2023-07-20T00:27:12;3.97;;;3.67;;
15708;SDS011;7954;51.914;8.420;2023-07-20T00:29:41;4.67;;;4.27;;
15708;SDS011;7954;51.914;8.420;2023-07-20T00:32:11;4.73;;;4.33;;
15708;SDS011;7954;51.914;8.420;2023-07-20T00:34:39;4.87;;;4.47;;
15708;SDS011;7954;51.914;8.420;2023-07-20T00:37:08;6.23;;;5.00;;
15708;SDS011;7954;51.914;8.420;2023-07-20T00:39:36;5.50;;;4.73;;
15708;SDS011;7954;51.914;8.420;2023-07-20T00:42:04;5.93;;;5.30;;
15708;SDS011;7954;51.914;8.420;2023-07-20T00:44:32;5.57;;;5.07;;
15708;SDS011;7954;51.914;8.420;2023-07-20T00:47:01;5.30;;;4.80;;
15708;SDS011;7954;51.914;8.420;2023-07-20T00:49:31;5.30;;;4.90;;
15708;SDS011;7954;51.914;8.420;2023-07-20T00:51:59;5.77;;;5.17;;
15708;SDS011;7954;51.914;8.420;2023-07-20T00:54:29;5.53;;;5.10;;
15708;SDS011;7954;51.914;8.420;2023-07-20T00:56:58;5.30;;;4.90;;
15708;SDS011;7954;51.914;8.420;2023-07-20T00:59:28;7.10;;;5.73;;
15708;SDS011;7954;51.914;8.420;2023-07-20T01:01:57;6.27;;;5.67;;
15708;SDS011;7954;51.914;8.420;2023-07-20T01:04:26;7.37;;;6.67;;
15708;SDS011;7954;51.914;8.420;2023-07-20T01:06:58;7.33;;;5.80;;
15708;SDS011;7954;51.914;8.420;2023-07-20T01:09:31;5.87;;;5.47;;
15708;SDS011;7954;51.914;8.420;2023-07-20T01:12:07;6.67;;;6.07;;
15708;SDS011;7954;51.914;8.420;2023-07-20T01:14:40;6.07;;;5.43;;
15708;SDS011;7954;51.914;8.420;2023-07-20T01:17:08;6.47;;;5.93;;
15708;SDS011;7954;51.914;8.420;2023-07-20T01:19:36;7.53;;;6.00;;
15708;SDS011;7954;51.914;8.420;2023-07-20T01:22:09;6.80;;;6.20;;
15708;SDS011;7954;51.914;8.420;2023-07-20T01:25:04;8.93;;;6.90;;
15708;SDS011;7954;51.914;8.420;2023-07-20T01:30:46;8.07;;;5.93;;
15708;SDS011;7954;51.914;8.420;2023-07-20T01:33:22;7.87;;;6.03;;
15708;SDS011;7954;51.914;8.420;2023-07-20T01:35:53;8.03;;;6.50;;
15708;SDS011;7954;51.914;8.420;2023-07-20T01:38:23;7.23;;;6.53;;
15708;SDS011;7954;51.914;8.420;2023-07-20T01:40:52;8.63;;;7.83;;
15708;SDS011;7954;51.914;8.420;2023-07-20T01:43:20;9.63;;;8.47;;
15708;SDS011;7954;51.914;8.420;2023-07-20T01:45:48;11.80;;;9.17;;
15708;SDS011;7954;51.914;8.420;2023-07-20T01:48:16;11.13;;;10.00;;
15708;SDS011;7954;51.914;8.420;2023-07-20T01:50:46;14.40;;;12.87;;
15708;SDS011;7954;51.914;8.420;2023-07-20T01:53:14;19.83;;;15.60;;
15708;SDS011;7954;51.914;8.420;2023-07-20T01:55:42;18.53;;;16.13;;
15708;SDS011;7954;51.914;8.420;2023-07-20T01:58:10;17.57;;;15.13;;
15708;SDS011;7954;51.914;8.420;2023-07-20T02:00:38;22.70;;;18.07;;
15708;SDS011;7954;51.914;8.420;2023-07-20T02:03:06;22.80;;;17.10;;
15708;SDS011;7954;51.914;8.420;2023-07-20T02:05:34;17.80;;;15.90;;
15708;SDS011;7954;51.914;8.420;2023-07-20T02:08:04;18.77;;;15.83;;
15708;SDS011;7954;51.914;8.420;2023-07-20T02:10:32;21.23;;;18.97;;
15708;SDS011;7954;51.914;8.420;2023-07-20T02:13:01;23.87;;;20.23;;
15708;SDS011;7954;51.914;8.420;2023-07-20T02:15:29;21.57;;;18.40;;
15708;SDS011;7954;51.914;8.420;2023-07-20T02:17:57;22.97;;;18.83;;
15708;SDS011;7954;51.914;8.420;2023-07-20T02:20:25;24.43;;;18.60;;
15708;SDS011;7954;51.914;8.420;2023-07-20T02:22:54;21.13;;;17.73;;
15708;SDS011;7954;51.914;8.420;2023-07-20T02:25:24;20.47;;;16.73;;
15708;SDS011;7954;51.914;8.420;2023-07-20T02:27:52;20.90;;;17.13;;
15708;SDS011;7954;51.914;8.420;2023-07-20T02:30:20;17.17;;;15.00;;
15708;SDS011;7954;51.914;8.420;2023-07-20T02:32:49;15.17;;;13.20;;
15708;SDS011;7954;51.914;8.420;2023-07-20T02:35:16;17.27;;;13.67;;
15708;SDS011;7954;51.914;8.420;2023-07-20T02:37:44;14.13;;;11.90;;
15708;SDS011;7954;51.914;8.420;2023-07-20T02:40:13;13.13;;;11.70;;
15708;SDS011;7954;51.914;8.420;2023-07-20T02:42:43;11.87;;;10.67;;
15708;SDS011;7954;51.914;8.420;2023-07-20T02:45:12;14.33;;;12.13;;
15708;SDS011;7954;51.914;8.420;2023-07-20T02:47:41;10.93;;;9.77;;
15708;SDS011;7954;51.914;8.420;2023-07-20T02:50:09;12.57;;;10.27;;
15708;SDS011;7954;51.914;8.420;2023-07-20T02:52:40;11.00;;;9.80;;
15708;SDS011;7954;51.914;8.420;2023-07-20T02:55:09;10.97;;;9.87;;
15708;SDS011;7954;51.914;8.420;2023-07-20T02:57:37;12.80;;;9.33;;
15708;SDS011;7954;51.914;8.420;2023-07-20T03:00:07;12.80;;;10.03;;
15708;SDS011;7954;51.914;8.420;2023-07-20T03:02:38;11.63;;;10.20;;
15708;SDS011;7954;51.914;8.420;2023-07-20T03:05:06;12.70;;;9.80;;
15708;SDS011;7954;51.914;8.420;2023-07-20T03:07:35;9.77;;;8.73;;
15708;SDS011;7954;51.914;8.420;2023-07-20T03:10:03;12.67;;;11.03;;
15708;SDS011;7954;51.914;8.420;2023-07-20T03:12:33;10.77;;;9.70;;
15708;SDS011;7954;51.914;8.420;2023-07-20T03:15:01;11.40;;;9.27;;
15708;SDS011;7954;51.914;8.420;2023-07-20T03:17:31;8.83;;;8.00;;
15708;SDS011;7954;51.914;8.420;2023-07-20T03:19:59;10.03;;;9.00;;
15708;SDS011;7954;51.914;8.420;2023-07-20T03:22:29;9.63;;;8.73;;
15708;SDS011;7954;51.914;8.420;2023-07-20T03:24:57;9.10;;;8.27;;
15708;SDS011;7954;51.914;8.420;2023-07-20T03:27:25;10.50;;;8.37;;
15708;SDS011;7954;51.914;8.420;2023-07-20T03:29:55;10.37;;;8.47;;
15708;SDS011;7954;51.914;8.420;2023-07-20T03:32:23;10.77;;;9.67;;
15708;SDS011;7954;51.914;8.420;2023-07-20T03:34:53;13.07;;;11.47;;
15708;SDS011;7954;51.914;8.420;2023-07-20T03:37:21;10.63;;;9.53;;
15708;SDS011;7954;51.914;8.420;2023-07-20T03:39:49;10.73;;;9.63;;
15708;SDS011;7954;51.914;8.420;2023-07-20T03:42:17;10.37;;;9.33;;
15708;SDS011;7954;51.914;8.420;2023-07-20T03:44:45;11.70;;;10.60;;
15708;SDS011;7954;51.914;8.420;2023-07-20T03:47:14;12.10;;;10.90;;
15708;SDS011;7954;51.914;8.420;2023-07-20T03:49:42;11.60;;;9.70;;
15708;SDS011;7954;51.914;8.420;2023-07-20T03:52:12;11.23;;;10.07;;
15708;SDS011;7954;51.914;8.420;2023-07-20T03:54:40;16.37;;;12.97;;
15708;SDS011;7954;51.914;8.420;2023-07-20T03:57:08;14.63;;;13.10;;
15708;SDS011;7954;51.914;8.420;2023-07-20T03:59:37;18.17;;;14.80;;
15708;SDS011;7954;51.914;8.420;2023-07-20T04:02:05;17.20;;;15.50;;
15708;SDS011;7954;51.914;8.420;2023-07-20T04:04:33;12.60;;;11.30;;
15708;SDS011;7954;51.914;8.420;2023-07-20T04:07:01;12.20;;;10.97;;
15708;SDS011;7954;51.914;8.420;2023-07-20T04:09:31;12.67;;;11.27;;
15708;SDS011;7954;51.914;8.420;2023-07-20T04:11:59;14.13;;;11.30;;
15708;SDS011;7954;51.914;8.420;2023-07-20T04:14:27;16.73;;;12.33;;
15708;SDS011;7954;51.914;8.420;2023-07-20T04:16:55;16.37;;;12.30;;
15708;SDS011;7954;51.914;8.420;2023-07-20T04:19:23;12.23;;;11.07;;
15708;SDS011;7954;51.914;8.420;2023-07-20T04:21:51;13.30;;;11.37;;
15708;SDS011;7954;51.914;8.420;2023-07-20T04:24:19;11.30;;;10.23;;
15708;SDS011;7954;51.914;8.420;2023-07-20T04:26:49;11.33;;;10.30;;
15708;SDS011;7954;51.914;8.420;2023-07-20T04:29:17;10.00;;;8.90;;
15708;SDS011;7954;51.914;8.420;2023-07-20T04:31:46;8.83;;;8.03;;
15708;SDS011;7954;51.914;8.420;2023-07-20T04:34:14;8.30;;;7.50;;
15708;SDS011;7954;51.914;8.420;2023-07-20T04:36:42;7.80;;;7.10;;
15708;SDS011;7954;51.914;8.420;2023-07-20T04:39:12;7.43;;;6.83;;
15708;SDS011;7954;51.914;8.420;2023-07-20T04:41:58;5.87;;;5.37;;
15708;SDS011;7954;51.914;8.420;2023-07-20T04:44:26;5.90;;;5.40;;
15708;SDS011;7954;51.914;8.420;2023-07-20T04:46:54;4.87;;;4.47;;
15708;SDS011;7954;51.914;8.420;2023-07-20T04:49:22;5.67;;;5.17;;
15708;SDS011;7954;51.914;8.420;2023-07-20T04:51:50;4.93;;;4.53;;
15708;SDS011;7954;51.914;8.420;2023-07-20T04:54:19;5.10;;;4.70;;
15708;SDS011;7954;51.914;8.420;2023-07-20T04:56:47;5.10;;;4.70;;
15708;SDS011;7954;51.914;8.420;2023-07-20T04:59:18;5.20;;;4.70;;
15708;SDS011;7954;51.914;8.420;2023-07-20T05:01:46;5.10;;;4.60;;
15708;SDS011;7954;51.914;8.420;2023-07-20T05:04:14;5.27;;;4.80;;
15708;SDS011;7954;51.914;8.420;2023-07-20T05:06:44;5.17;;;4.67;;
15708;SDS011;7954;51.914;8.420;2023-07-20T05:09:12;4.43;;;4.03;;
15708;SDS011;7954;51.914;8.420;2023-07-20T05:11:40;4.03;;;3.73;;
15708;SDS011;7954;51.914;8.420;2023-07-20T05:14:08;4.00;;;3.70;;
15708;SDS011;7954;51.914;8.420;2023-07-20T05:16:37;3.10;;;2.90;;
15708;SDS011;7954;51.914;8.420;2023-07-20T05:19:05;4.17;;;3.87;;
15708;SDS011;7954;51.914;8.420;2023-07-20T05:21:33;4.13;;;3.70;;
15708;SDS011;7954;51.914;8.420;2023-07-20T05:24:02;3.77;;;3.40;;
15708;SDS011;7954;51.914;8.420;2023-07-20T05:26:30;3.00;;;2.80;;
15708;SDS011;7954;51.914;8.420;2023-07-20T05:28:59;3.10;;;2.80;;
15708;SDS011;7954;51.914;8.420;2023-07-20T05:31:27;6.43;;;4.50;;
15708;SDS011;7954;51.914;8.420;2023-07-20T05:33:58;3.83;;;2.87;;
15708;SDS011;7954;51.914;8.420;2023-07-20T05:36:26;3.23;;;2.50;;
15708;SDS011;7954;51.914;8.420;2023-07-20T05:38:54;3.53;;;3.13;;
15708;SDS011;7954;51.914;8.420;2023-07-20T05:41:22;2.97;;;2.77;;
15708;SDS011;7954;51.914;8.420;2023-07-20T05:43:50;2.67;;;2.47;;
15708;SDS011;7954;51.914;8.420;2023-07-20T05:46:18;3.03;;;2.83;;
15708;SDS011;7954;51.914;8.420;2023-07-20T05:48:47;3.10;;;2.90;;
15708;SDS011;7954;51.914;8.420;2023-07-20T05:51:17;2.80;;;2.60;;
15708;SDS011;7954;51.914;8.420;2023-07-20T05:53:45;2.63;;;2.43;;
15708;SDS011;7954;51.914;8.420;2023-07-20T05:56:14;2.60;;;2.40;;
15708;SDS011;7954;51.914;8.420;2023-07-20T05:58:43;2.93;;;2.70;;
15708;SDS011;7954;51.914;8.420;2023-07-20T06:01:12;3.00;;;2.70;;
15708;SDS011;7954;51.914;8.420;2023-07-20T06:03:40;3.20;;;2.40;;
15708;SDS011;7954;51.914;8.420;2023-07-20T06:06:09;2.60;;;2.40;;
15708;SDS011;7954;51.914;8.420;2023-07-20T06:08:40;2.47;;;2.37;;
15708;SDS011;7954;51.914;8.420;2023-07-20T06:11:07;2.50;;;2.30;;
15708;SDS011;7954;51.914;8.420;2023-07-20T06:13:36;2.53;;;2.20;;
15708;SDS011;7954;51.914;8.420;2023-07-20T06:16:04;2.30;;;2.20;;
15708;SDS011;7954;51.914;8.420;2023-07-20T06:18:32;2.63;;;2.03;;
15708;SDS011;7954;51.914;8.420;2023-07-20T06:21:02;2.23;;;1.87;;
15708;SDS011;7954;51.914;8.420;2023-07-20T06:23:30;2.50;;;2.30;;
15708;SDS011;7954;51.914;8.420;2023-07-20T06:25:59;2.20;;;2.00;;
15708;SDS011;7954;51.914;8.420;2023-07-20T06:28:28;1.90;;;1.80;;
15708;SDS011;7954;51.914;8.420;2023-07-20T06:30:59;2.17;;;1.73;;
15708;SDS011;7954;51.914;8.420;2023-07-20T06:33:28;2.13;;;1.93;;
15708;SDS011;7954;51.914;8.420;2023-07-20T06:35:57;2.30;;;2.10;;
15708;SDS011;7954;51.914;8.420;2023-07-20T06:38:25;2.07;;;1.87;;
15708;SDS011;7954;51.914;8.420;2023-07-20T06:40:57;2.10;;;1.90;;
15708;SDS011;7954;51.914;8.420;2023-07-20T06:43:46;2.33;;;1.90;;
15708;SDS011;7954;51.914;8.420;2023-07-20T06:46:15;1.67;;;1.57;;
15708;SDS011;7954;51.914;8.420;2023-07-20T06:48:43;2.47;;;1.67;;
15708;SDS011;7954;51.914;8.420;2023-07-20T06:51:14;1.70;;;1.60;;
15708;SDS011;7954;51.914;8.420;2023-07-20T06:53:42;1.60;;;1.50;;
15708;SDS011;7954;51.914;8.420;2023-07-20T06:56:10;1.53;;;1.43;;
15708;SDS011;7954;51.914;8.420;2023-07-20T06:58:39;1.60;;;1.50;;
15708;SDS011;7954;51.914;8.420;2023-07-20T07:01:09;1.73;;;1.57;;
15708;SDS011;7954;51.914;8.420;2023-07-20T07:03:36;1.40;;;1.30;;
15708;SDS011;7954;51.914;8.420;2023-07-20T07:06:05;1.73;;;1.30;;
15708;SDS011;7954;51.914;8.420;2023-07-20T07:08:33;3.10;;;1.60;;
15708;SDS011;7954;51.914;8.420;2023-07-20T07:11:02;1.67;;;1.57;;
15708;SDS011;7954;51.914;8.420;2023-07-20T07:13:32;1.60;;;1.50;;
15708;SDS011;7954;51.914;8.420;2023-07-20T07:16:01;1.40;;;1.30;;
15708;SDS011;7954;51.914;8.420;2023-07-20T07:18:36;1.50;;;1.40;;
15708;SDS011;7954;51.914;8.420;2023-07-20T07:21:06;1.23;;;1.23;;
15708;SDS011;7954;51.914;8.420;2023-07-20T07:23:34;1.50;;;1.40;;
15708;SDS011;7954;51.914;8.420;2023-07-20T07:26:02;1.97;;;1.50;;
15708;SDS011;7954;51.914;8.420;2023-07-20T07:28:31;1.50;;;1.40;;
15708;SDS011;7954;51.914;8.420;2023-07-20T07:30:59;2.47;;;1.37;;
15708;SDS011;7954;51.914;8.420;2023-07-20T07:33:27;1.93;;;1.37;;
15708;SDS011;7954;51.914;8.420;2023-07-20T07:35:57;1.27;;;1.27;;
15708;SDS011;7954;51.914;8.420;2023-07-20T07:38:28;1.27;;;1.17;;
15708;SDS011;7954;51.914;8.420;2023-07-20T07:41:16;1.30;;;1.20;;
15708;SDS011;7954;51.914;8.420;2023-07-20T07:43:44;1.20;;;1.10;;
15708;SDS011;7954;51.914;8.420;2023-07-20T07:46:11;1.30;;;1.20;;
15708;SDS011;7954;51.914;8.420;2023-07-20T07:48:40;1.10;;;1.00;;
15708;SDS011;7954;51.914;8.420;2023-07-20T07:51:12;1.23;;;1.10;;
15708;SDS011;7954;51.914;8.420;2023-07-20T07:53:42;1.50;;;1.03;;
15708;SDS011;7954;51.914;8.420;2023-07-20T07:56:10;1.17;;;1.17;;
15708;SDS011;7954;51.914;8.420;2023-07-20T07:58:38;1.00;;;1.00;;
15708;SDS011;7954;51.914;8.420;2023-07-20T08:01:07;1.00;;;1.00;;
15708;SDS011;7954;51.914;8.420;2023-07-20T08:03:36;1.20;;;1.10;;
15708;SDS011;7954;51.914;8.420;2023-07-20T08:06:04;1.30;;;1.27;;
15708;SDS011;7954;51.914;8.420;2023-07-20T08:08:34;1.20;;;1.10;;
15708;SDS011;7954;51.914;8.420;2023-07-20T08:11:02;1.53;;;1.10;;
15708;SDS011;7954;51.914;8.420;2023-07-20T08:13:33;1.70;;;1.13;;
15708;SDS011;7954;51.914;8.420;2023-07-20T08:16:03;1.83;;;1.53;;
15708;SDS011;7954;51.914;8.420;2023-07-20T08:18:31;1.30;;;1.20;;
15708;SDS011;7954;51.914;8.420;2023-07-20T08:20:59;1.10;;;1.10;;
15708;SDS011;7954;51.914;8.420;2023-07-20T08:23:27;1.10;;;1.10;;
15708;SDS011;7954;51.914;8.420;2023-07-20T08:25:57;1.20;;;1.20;;
15708;SDS011;7954;51.914;8.420;2023-07-20T08:28:27;1.33;;;1.20;;
15708;SDS011;7954;51.914;8.420;2023-07-20T08:30:56;1.40;;;1.30;;
15708;SDS011;7954;51.914;8.420;2023-07-20T08:33:25;1.10;;;1.10;;
15708;SDS011;7954;51.914;8.420;2023-07-20T08:35:56;1.17;;;1.17;;
15708;SDS011;7954;51.914;8.420;2023-07-20T08:38:24;1.50;;;1.20;;
15708;SDS011;7954;51.914;8.420;2023-07-20T08:40:52;1.07;;;1.07;;
15708;SDS011;7954;51.914;8.420;2023-07-20T08:43:23;1.10;;;1.00;;
15708;SDS011;7954;51.914;8.420;2023-07-20T08:45:54;1.00;;;1.00;;
15708;SDS011;7954;51.914;8.420;2023-07-20T08:48:22;0.90;;;0.90;;
15708;SDS011;7954;51.914;8.420;2023-07-20T08:50:52;1.30;;;1.20;;
15708;SDS011;7954;51.914;8.420;2023-07-20T08:53:20;1.47;;;1.20;;
15708;SDS011;7954;51.914;8.420;2023-07-20T08:55:50;1.23;;;1.13;;
15708;SDS011;7954;51.914;8.420;2023-07-20T08:58:18;2.10;;;1.30;;
15708;SDS011;7954;51.914;8.420;2023-07-20T09:00:49;0.90;;;0.90;;
15708;SDS011;7954;51.914;8.420;2023-07-20T09:03:19;0.80;;;0.80;;
15708;SDS011;7954;51.914;8.420;2023-07-20T09:05:47;0.90;;;0.90;;
15708;SDS011;7954;51.914;8.420;2023-07-20T09:08:16;1.10;;;1.00;;
15708;SDS011;7954;51.914;8.420;2023-07-20T09:10:44;1.20;;;1.20;;
15708;SDS011;7954;51.914;8.420;2023-07-20T09:13:14;0.80;;;0.80;;
15708;SDS011;7954;51.914;8.420;2023-07-20T09:15:45;1.03;;;1.03;;
15708;SDS011;7954;51.914;8.420;2023-07-20T09:18:24;2.70;;;1.20;;
15708;SDS011;7954;51.914;8.420;2023-07-20T09:20:52;1.10;;;1.00;;
15708;SDS011;7954;51.914;8.420;2023-07-20T09:23:20;0.97;;;0.97;;
15708;SDS011;7954;51.914;8.420;2023-07-20T09:25:57;0.80;;;0.80;;
15708;SDS011;7954;51.914;8.420;2023-07-20T09:28:25;1.03;;;0.97;;
15708;SDS011;7954;51.914;8.420;2023-07-20T09:30:54;1.20;;;1.10;;
15708;SDS011;7954;51.914;8.420;2023-07-20T09:33:26;1.53;;;1.10;;
15708;SDS011;7954;51.914;8.420;2023-07-20T09:35:54;1.20;;;1.10;;
15708;SDS011;7954;51.914;8.420;2023-07-20T09:38:50;1.20;;;1.10;;
15708;SDS011;7954;51.914;8.420;2023-07-20T09:41:20;4.07;;;1.50;;
15708;SDS011;7954;51.914;8.420;2023-07-20T09:43:51;1.00;;;1.00;;
15708;SDS011;7954;51.914;8.420;2023-07-20T09:46:20;1.10;;;1.00;;
15708;SDS011;7954;51.914;8.420;2023-07-20T09:48:53;1.00;;;1.00;;
15708;SDS011;7954;51.914;8.420;2023-07-20T09:51:24;1.83;;;1.10;;
15708;SDS011;7954;51.914;8.420;2023-07-20T09:53:52;0.90;;;0.90;;
15708;SDS011;7954;51.914;8.420;2023-07-20T09:56:21;1.00;;;1.00;;
15708;SDS011;7954;51.914;8.420;2023-07-20T09:58:50;0.97;;;0.97;;
15708;SDS011;7954;51.914;8.420;2023-07-20T10:01:20;1.30;;;1.20;;
15708;SDS011;7954;51.914;8.420;2023-07-20T10:03:54;1.47;;;1.10;;
15708;SDS011;7954;51.914;8.420;2023-07-20T10:06:28;1.30;;;1.20;;
15708;SDS011;7954;51.914;8.420;2023-07-20T10:09:03;1.20;;;1.10;;
15708;SDS011;7954;51.914;8.420;2023-07-20T10:11:35;2.00;;;1.90;;
15708;SDS011;7954;51.914;8.420;2023-07-20T10:14:04;2.23;;;2.03;;
15708;SDS011;7954;51.914;8.420;2023-07-20T10:16:35;1.10;;;1.10;;
15708;SDS011;7954;51.914;8.420;2023-07-20T10:19:07;1.10;;;1.00;;
15708;SDS011;7954;51.914;8.420;2023-07-20T10:21:48;1.30;;;1.20;;
15708;SDS011;7954;51.914;8.420;2023-07-20T10:24:24;1.50;;;1.40;;
15708;SDS011;7954;51.914;8.420;2023-07-20T10:26:54;1.30;;;1.20;;
15708;SDS011;7954;51.914;8.420;2023-07-20T10:29:23;2.90;;;1.80;;
15708;SDS011;7954;51.914;8.420;2023-07-20T10:31:51;1.67;;;1.57;;
15708;SDS011;7954;51.914;8.420;2023-07-20T10:34:24;2.10;;;0.97;;
15708;SDS011;7954;51.914;8.420;2023-07-20T10:36:53;1.53;;;1.20;;
15708;SDS011;7954;51.914;8.420;2023-07-20T10:39:24;1.57;;;1.47;;
15708;SDS011;7954;51.914;8.420;2023-07-20T10:42:01;2.80;;;1.37;;
15708;SDS011;7954;51.914;8.420;2023-07-20T10:44:30;3.23;;;2.60;;
15708;SDS011;7954;51.914;8.420;2023-07-20T10:46:58;1.60;;;1.50;;
15708;SDS011;7954;51.914;8.420;2023-07-20T10:49:32;1.33;;;1.23;;
15708;SDS011;7954;51.914;8.420;2023-07-20T10:52:03;1.53;;;1.20;;
15708;SDS011;7954;51.914;8.420;2023-07-20T10:54:33;1.43;;;1.30;;
15708;SDS011;7954;51.914;8.420;2023-07-20T10:57:24;1.20;;;1.20;;
15708;SDS011;7954;51.914;8.420;2023-07-20T11:00:07;1.60;;;1.50;;
15708;SDS011;7954;51.914;8.420;2023-07-20T11:02:43;2.23;;;1.30;;
15708;SDS011;7954;51.914;8.420;2023-07-20T11:05:34;1.40;;;1.30;;
15708;SDS011;7954;51.914;8.420;2023-07-20T11:08:04;1.20;;;1.10;;
15708;SDS011;7954;51.914;8.420;2023-07-20T11:10:33;2.60;;;1.30;;
15708;SDS011;7954;51.914;8.420;2023-07-20T11:13:17;1.30;;;1.20;;
15708;SDS011;7954;51.914;8.420;2023-07-20T11:15:46;1.40;;;1.30;;
15708;SDS011;7954;51.914;8.420;2023-07-20T11:18:15;1.93;;;1.50;;
15708;SDS011;7954;51.914;8.420;2023-07-20T11:20:44;2.50;;;2.30;;
15708;SDS011;7954;51.914;8.420;2023-07-20T11:23:17;2.23;;;2.03;;
15708;SDS011;7954;51.914;8.420;2023-07-20T11:25:45;3.70;;;2.37;;
15708;SDS011;7954;51.914;8.420;2023-07-20T11:28:13;2.03;;;1.60;;
15708;SDS011;7954;51.914;8.420;2023-07-20T11:30:41;1.60;;;1.50;;
15708;SDS011;7954;51.914;8.420;2023-07-20T11:33:09;3.40;;;2.60;;
15708;SDS011;7954;51.914;8.420;2023-07-20T11:35:41;1.63;;;1.53;;
15708;SDS011;7954;51.914;8.420;2023-07-20T11:38:12;1.70;;;1.60;;
15708;SDS011;7954;51.914;8.420;2023-07-20T11:40:42;1.93;;;1.83;;
15708;SDS011;7954;51.914;8.420;2023-07-20T11:43:11;2.20;;;2.10;;
15708;SDS011;7954;51.914;8.420;2023-07-20T11:45:43;1.57;;;1.47;;
15708;SDS011;7954;51.914;8.420;2023-07-20T11:48:14;2.03;;;1.40;;
15708;SDS011;7954;51.914;8.420;2023-07-20T11:50:44;2.00;;;1.90;;
15708;SDS011;7954;51.914;8.420;2023-07-20T11:53:13;1.30;;;1.30;;
15708;SDS011;7954;51.914;8.420;2023-07-20T11:55:42;1.43;;;1.33;;
15708;SDS011;7954;51.914;8.420;2023-07-20T11:58:10;1.53;;;1.43;;
15708;SDS011;7954;51.914;8.420;2023-07-20T12:00:38;1.80;;;1.20;;
15708;SDS011;7954;51.914;8.420;2023-07-20T12:03:07;1.67;;;1.30;;
15708;SDS011;7954;51.914;8.420;2023-07-20T12:05:37;2.50;;;1.10;;
15708;SDS011;7954;51.914;8.420;2023-07-20T12:08:27;2.10;;;1.20;;
15708;SDS011;7954;51.914;8.420;2023-07-20T12:10:55;2.60;;;1.27;;
15708;SDS011;7954;51.914;8.420;2023-07-20T12:13:23;1.20;;;1.10;;
15708;SDS011;7954;51.914;8.420;2023-07-20T12:15:53;1.60;;;1.40;;
15708;SDS011;7954;51.914;8.420;2023-07-20T12:18:22;1.10;;;1.10;;
15708;SDS011;7954;51.914;8.420;2023-07-20T12:20:58;1.30;;;1.20;;
15708;SDS011;7954;51.914;8.420;2023-07-20T12:23:34;1.40;;;1.30;;
15708;SDS011;7954;51.914;8.420;2023-07-20T12:26:02;1.37;;;1.20;;
15708;SDS011;7954;51.914;8.420;2023-07-20T12:28:31;1.60;;;1.50;;
15708;SDS011;7954;51.914;8.420;2023-07-20T12:31:00;1.20;;;1.10;;
15708;SDS011;7954;51.914;8.420;2023-07-20T12:33:28;1.60;;;1.50;;
15708;SDS011;7954;51.914;8.420;2023-07-20T12:35:56;2.30;;;2.10;;
15708;SDS011;7954;51.914;8.420;2023-07-20T12:38:25;1.30;;;1.10;;
15708;SDS011;7954;51.914;8.420;2023-07-20T12:40:56;1.67;;;1.20;;
15708;SDS011;7954;51.914;8.420;2023-07-20T12:43:24;1.30;;;1.20;;
15708;SDS011;7954;51.914;8.420;2023-07-20T12:45:53;1.00;;;1.00;;
15708;SDS011;7954;51.914;8.420;2023-07-20T12:48:22;1.47;;;1.13;;
15708;SDS011;7954;51.914;8.420;2023-07-20T12:50:50;1.00;;;1.00;;
15708;SDS011;7954;51.914;8.420;2023-07-20T12:53:18;1.15;;;1.02;;
15708;SDS011;7954;51.914;8.420;2023-07-20T12:55:46;1.33;;;1.33;;
15708;SDS011;7954;51.914;8.420;2023-07-20T12:58:15;1.70;;;1.60;;
15708;SDS011;7954;51.914;8.420;2023-07-20T13:00:44;1.27;;;1.17;;
15708;SDS011;7954;51.914;8.420;2023-07-20T13:03:12;2.20;;;1.00;;
15708;SDS011;7954;51.914;8.420;2023-07-20T13:05:56;1.00;;;1.00;;
15708;SDS011;7954;51.914;8.420;2023-07-20T13:08:27;1.00;;;1.00;;
15708;SDS011;7954;51.914;8.420;2023-07-20T13:10:55;1.00;;;1.00;;
15708;SDS011;7954;51.914;8.420;2023-07-20T13:13:25;0.90;;;0.90;;
15708;SDS011;7954;51.914;8.420;2023-07-20T13:15:53;1.02;;;1.00;;
15708;SDS011;7954;51.914;8.420;2023-07-20T13:18:21;1.00;;;1.00;;
15708;SDS011;7954;51.914;8.420;2023-07-20T13:20:49;1.00;;;1.00;;
15708;SDS011;7954;51.914;8.420;2023-07-20T13:23:19;1.10;;;1.00;;
15708;SDS011;7954;51.914;8.420;2023-07-20T13:25:48;1.15;;;1.10;;
15708;SDS011;7954;51.914;8.420;2023-07-20T13:28:17;1.10;;;1.00;;
15708;SDS011;7954;51.914;8.420;2023-07-20T13:30:47;1.10;;;1.10;;
15708;SDS011;7954;51.914;8.420;2023-07-20T13:33:15;1.05;;;1.05;;
15708;SDS011;7954;51.914;8.420;2023-07-20T13:35:44;1.45;;;1.35;;
15708;SDS011;7954;51.914;8.420;2023-07-20T13:38:15;1.65;;;1.30;;
15708;SDS011;7954;51.914;8.420;2023-07-20T13:40:43;1.20;;;1.20;;
15708;SDS011;7954;51.914;8.420;2023-07-20T13:43:11;1.20;;;1.20;;
15708;SDS011;7954;51.914;8.420;2023-07-20T13:45:39;1.27;;;1.23;;
15708;SDS011;7954;51.914;8.420;2023-07-20T13:48:10;1.10;;;1.10;;
15708;SDS011;7954;51.914;8.420;2023-07-20T13:50:43;3.58;;;3.38;;
15708;SDS011;7954;51.914;8.420;2023-07-20T13:53:26;2.28;;;2.17;;
15708;SDS011;7954;51.914;8.420;2023-07-20T13:55:58;2.97;;;2.78;;
15708;SDS011;7954;51.914;8.420;2023-07-20T13:58:29;2.65;;;1.90;;
15708;SDS011;7954;51.914;8.420;2023-07-20T14:00:57;1.50;;;1.40;;
15708;SDS011;7954;51.914;8.420;2023-07-20T14:03:27;1.45;;;1.35;;
15708;SDS011;7954;51.914;8.420;2023-07-20T14:05:55;1.02;;;1.02;;
15708;SDS011;7954;51.914;8.420;2023-07-20T14:08:26;1.15;;;0.98;;
15708;SDS011;7954;51.914;8.420;2023-07-20T14:10:56;1.10;;;1.00;;
15708;SDS011;7954;51.914;8.420;2023-07-20T14:13:27;1.33;;;0.90;;
15708;SDS011;7954;51.914;8.420;2023-07-20T14:16:12;1.80;;;1.70;;
15708;SDS011;7954;51.914;8.420;2023-07-20T14:18:42;3.53;;;3.22;;
15708;SDS011;7954;51.914;8.420;2023-07-20T14:21:15;2.78;;;2.53;;
15708;SDS011;7954;51.914;8.420;2023-07-20T14:23:44;1.50;;;1.40;;
15708;SDS011;7954;51.914;8.420;2023-07-20T14:26:13;1.05;;;1.05;;
15708;SDS011;7954;51.914;8.420;2023-07-20T14:28:41;1.65;;;1.33;;
15708;SDS011;7954;51.914;8.420;2023-07-20T14:31:09;1.23;;;1.00;;
15708;SDS011;7954;51.914;8.420;2023-07-20T14:33:37;1.10;;;1.00;;
15708;SDS011;7954;51.914;8.420;2023-07-20T14:36:08;0.90;;;0.90;;
15708;SDS011;7954;51.914;8.420;2023-07-20T14:38:37;1.20;;;1.10;;
15708;SDS011;7954;51.914;8.420;2023-07-20T14:41:07;1.00;;;1.00;;
15708;SDS011;7954;51.914;8.420;2023-07-20T14:43:35;1.03;;;1.03;;
15708;SDS011;7954;51.914;8.420;2023-07-20T14:46:03;1.00;;;1.00;;
15708;SDS011;7954;51.914;8.420;2023-07-20T14:48:31;0.90;;;0.90;;
15708;SDS011;7954;51.914;8.420;2023-07-20T14:50:59;0.90;;;0.90;;
15708;SDS011;7954;51.914;8.420;2023-07-20T14:53:32;0.83;;;0.83;;
15708;SDS011;7954;51.914;8.420;2023-07-20T14:56:02;1.00;;;1.00;;
15708;SDS011;7954;51.914;8.420;2023-07-20T14:58:31;0.97;;;0.97;;
15708;SDS011;7954;51.914;8.420;2023-07-20T15:01:01;1.83;;;1.60;;
15708;SDS011;7954;51.914;8.420;2023-07-20T15:03:30;1.88;;;1.20;;
15708;SDS011;7954;51.914;8.420;2023-07-20T15:05:58;1.30;;;1.20;;
15708;SDS011;7954;51.914;8.420;2023-07-20T15:08:27;1.30;;;1.20;;
15708;SDS011;7954;51.914;8.420;2023-07-20T15:10:56;1.13;;;1.13;;
15708;SDS011;7954;51.914;8.420;2023-07-20T15:13:24;1.88;;;1.67;;
15708;SDS011;7954;51.914;8.420;2023-07-20T15:15:52;1.38;;;1.27;;